Terminal Aerodrome Forecast
Issued by NWS

Current Version | Previous Version | Text Only | Print | Product List | Glossary On
Versions: 1 2 3 4 5 6 7 8 9 10 11 12 13 14 15 16 17 18 19 20 21 22 23 24 25 26
000
FTUS43 KSGF 191000 AAA
TAFJLN
TAF AMD
KJLN 191001Z 1910/2006 13005KT P6SM FEW010 BKN250
     FM191400 15008KT P6SM SCT020 BKN250
     FM191600 16008KT P6SM FEW250=

USA.gov is the U.S. government's official web portal to all federal, state and local government web resources and services.